createdAt,value
2023-12-10T00:00:36.563Z,12.17
2023-12-10T00:03:23.878Z,11.03
2023-12-10T00:06:00.339Z,10.80
2023-12-10T00:08:34.837Z,11.40
2023-12-10T00:11:01.829Z,11.50
2023-12-10T00:13:28.789Z,12.00
2023-12-10T00:15:55.250Z,11.10
2023-12-10T00:18:22.306Z,11.43
2023-12-10T00:20:49.127Z,11.83
2023-12-10T00:23:16.173Z,11.13
2023-12-10T00:25:44.178Z,10.87
2023-12-10T00:28:11.265Z,10.33
2023-12-10T00:30:38.288Z,10.07
2023-12-10T00:33:05.150Z,11.97
2023-12-10T00:35:31.941Z,12.27
2023-12-10T00:37:58.988Z,13.17
2023-12-10T00:40:25.399Z,13.20
2023-12-10T00:42:52.413Z,11.70
2023-12-10T00:45:18.935Z,11.93
2023-12-10T00:47:45.978Z,12.67
2023-12-10T00:50:12.806Z,13.03
2023-12-10T00:52:40.153Z,13.63
2023-12-10T00:55:06.784Z,13.40
2023-12-10T00:57:34.761Z,14.07
2023-12-10T01:00:01.233Z,13.97
2023-12-10T01:02:29.329Z,12.77
2023-12-10T01:04:56.495Z,13.83
2023-12-10T01:07:23.608Z,12.70
2023-12-10T01:09:50.165Z,12.63
2023-12-10T01:12:17.257Z,13.23
2023-12-10T01:14:44.922Z,12.37
2023-12-10T01:17:13.010Z,11.87
2023-12-10T01:19:40.118Z,13.23
2023-12-10T01:22:06.819Z,12.87
2023-12-10T01:24:33.271Z,13.40
2023-12-10T01:27:00.684Z,12.57
2023-12-10T01:29:27.513Z,11.83
2023-12-10T01:31:54.288Z,12.97
2023-12-10T01:34:20.876Z,12.17
2023-12-10T01:36:48.591Z,11.97
2023-12-10T01:39:15.986Z,12.10
2023-12-10T01:41:43.677Z,11.57
2023-12-10T01:44:12.906Z,12.03
2023-12-10T01:46:39.529Z,12.53
2023-12-10T01:49:08.414Z,11.83
2023-12-10T01:51:36.912Z,11.20
2023-12-10T01:54:04.271Z,12.33
2023-12-10T01:56:31.318Z,11.60
2023-12-10T01:58:58.919Z,12.63
2023-12-10T02:01:26.268Z,12.00
2023-12-10T02:03:54.005Z,12.00
2023-12-10T02:06:22.691Z,12.43
2023-12-10T02:08:49.507Z,11.80
2023-12-10T02:11:16.547Z,12.37
2023-12-10T02:13:43.544Z,11.07
2023-12-10T02:16:09.912Z,11.67
2023-12-10T02:18:37.130Z,10.70
2023-12-10T02:21:03.908Z,10.40
2023-12-10T02:23:44.813Z,10.70
2023-12-10T02:26:11.627Z,11.50
2023-12-10T02:28:38.715Z,11.20
2023-12-10T02:31:05.698Z,11.40
2023-12-10T02:33:32.482Z,11.17
2023-12-10T02:35:59.136Z,11.27
2023-12-10T02:38:25.914Z,11.73
2023-12-10T02:40:52.332Z,11.33
2023-12-10T02:43:20.389Z,10.80
2023-12-10T02:45:47.585Z,11.40
2023-12-10T02:48:14.540Z,13.40
2023-12-10T02:50:41.041Z,11.20
2023-12-10T02:53:07.878Z,10.03
2023-12-10T02:55:34.250Z,11.60
2023-12-10T02:58:03.578Z,10.50
2023-12-10T03:00:31.565Z,11.30
2023-12-10T03:02:58.688Z,10.70
2023-12-10T03:05:25.732Z,11.07
2023-12-10T03:07:53.009Z,11.33
2023-12-10T03:10:20.406Z,11.37
2023-12-10T03:12:47.256Z,10.70
2023-12-10T03:15:14.072Z,10.57
2023-12-10T03:17:41.114Z,11.83
2023-12-10T03:20:09.900Z,11.27
2023-12-10T03:22:36.582Z,11.17
2023-12-10T03:25:03.176Z,11.77
2023-12-10T03:27:30.281Z,12.30
2023-12-10T03:29:56.940Z,10.47
2023-12-10T03:32:23.828Z,10.83
2023-12-10T03:34:50.366Z,11.07
2023-12-10T03:37:17.178Z,12.10
2023-12-10T03:39:43.730Z,11.33
2023-12-10T03:42:10.540Z,11.07
2023-12-10T03:44:36.931Z,11.90
2023-12-10T03:47:04.210Z,11.97
2023-12-10T03:49:30.898Z,11.43
2023-12-10T03:51:58.370Z,9.83
2023-12-10T03:54:24.955Z,10.70
2023-12-10T03:56:51.701Z,10.43
2023-12-10T03:59:18.169Z,10.97
2023-12-10T04:01:45.122Z,11.07
2023-12-10T04:04:12.183Z,11.37
2023-12-10T04:06:42.865Z,11.00
2023-12-10T04:09:09.945Z,11.77
2023-12-10T04:11:37.738Z,10.83
2023-12-10T04:14:08.600Z,11.40
2023-12-10T04:16:35.543Z,10.57
2023-12-10T04:19:02.121Z,11.17
2023-12-10T04:21:29.016Z,12.40
2023-12-10T04:23:55.510Z,11.67
2023-12-10T04:26:22.490Z,10.50
2023-12-10T04:28:49.962Z,11.80
2023-12-10T04:31:16.846Z,10.50
2023-12-10T04:33:45.109Z,12.90
2023-12-10T04:36:12.444Z,11.17
2023-12-10T04:38:39.397Z,14.57
2023-12-10T04:41:06.369Z,14.27
2023-12-10T04:43:32.824Z,11.23
2023-12-10T04:45:59.867Z,11.63
2023-12-10T04:48:26.536Z,10.63
2023-12-10T04:50:53.446Z,10.73
2023-12-10T04:53:19.899Z,11.10
2023-12-10T04:55:46.842Z,10.80
2023-12-10T04:58:13.478Z,11.70
2023-12-10T05:00:41.393Z,10.20
2023-12-10T05:03:07.846Z,12.13
2023-12-10T05:05:34.944Z,11.43
2023-12-10T05:08:01.494Z,12.00
2023-12-10T05:10:31.100Z,11.50
2023-12-10T05:12:59.732Z,11.63
2023-12-10T05:15:26.717Z,11.37
2023-12-10T05:17:53.282Z,11.20
2023-12-10T05:20:20.281Z,11.70
2023-12-10T05:22:46.934Z,12.30
2023-12-10T05:25:13.823Z,10.50
2023-12-10T05:27:40.330Z,10.67
2023-12-10T05:30:07.475Z,11.30
2023-12-10T05:32:33.950Z,9.87
2023-12-10T05:35:00.646Z,11.03
2023-12-10T05:37:27.906Z,9.80
2023-12-10T05:39:55.131Z,10.87
2023-12-10T05:42:21.676Z,9.93
2023-12-10T05:44:49.048Z,9.30
2023-12-10T05:47:15.456Z,10.07
2023-12-10T05:49:42.344Z,10.80
2023-12-10T05:52:08.858Z,9.10
2023-12-10T05:54:35.710Z,10.10
2023-12-10T05:57:02.191Z,9.90
2023-12-10T05:59:29.426Z,11.20
2023-12-10T06:01:56.611Z,11.07
2023-12-10T06:04:23.652Z,10.57
2023-12-10T06:06:50.511Z,11.17
2023-12-10T06:09:17.573Z,10.70
2023-12-10T06:11:44.225Z,11.33
2023-12-10T06:14:11.306Z,11.93
2023-12-10T06:16:38.180Z,9.93
2023-12-10T06:19:05.085Z,10.60
2023-12-10T06:21:32.904Z,9.60
2023-12-10T06:24:01.208Z,10.63
2023-12-10T06:26:27.929Z,9.70
2023-12-10T06:28:55.227Z,9.70
2023-12-10T06:31:21.917Z,10.03
2023-12-10T06:33:49.089Z,10.03
2023-12-10T06:36:15.953Z,11.47
2023-12-10T06:38:43.026Z,14.67
2023-12-10T06:41:09.555Z,10.93
2023-12-10T06:43:36.524Z,9.50
2023-12-10T06:46:04.293Z,9.50
2023-12-10T06:48:34.266Z,9.63
2023-12-10T06:51:02.938Z,9.97
2023-12-10T06:53:32.461Z,9.73
2023-12-10T06:55:59.101Z,10.00
2023-12-10T06:58:26.487Z,10.50
2023-12-10T07:00:53.194Z,9.70
2023-12-10T07:03:20.740Z,10.83
2023-12-10T07:05:47.530Z,10.70
2023-12-10T07:08:14.674Z,10.40
2023-12-10T07:10:41.096Z,10.77
2023-12-10T07:13:07.904Z,10.43
2023-12-10T07:15:34.778Z,10.17
2023-12-10T07:18:02.315Z,9.83
2023-12-10T07:20:28.776Z,10.50
2023-12-10T07:22:55.750Z,11.00
2023-12-10T07:25:22.177Z,9.37
2023-12-10T07:27:49.069Z,10.40
2023-12-10T07:30:15.885Z,12.93
2023-12-10T07:32:42.735Z,13.50
2023-12-10T07:35:09.228Z,15.50
2023-12-10T07:37:36.243Z,41.70
2023-12-10T07:40:03.448Z,46.07
2023-12-10T07:42:30.573Z,20.90
2023-12-10T07:44:57.097Z,28.77
2023-12-10T07:47:23.908Z,19.70
2023-12-10T07:49:51.098Z,19.50
2023-12-10T07:52:18.920Z,18.00
2023-12-10T07:54:45.654Z,17.90
2023-12-10T07:57:12.739Z,13.33
2023-12-10T07:59:39.451Z,14.03
2023-12-10T08:02:06.821Z,13.03
2023-12-10T08:04:33.450Z,11.67
2023-12-10T08:07:00.447Z,13.33
2023-12-10T08:09:29.489Z,11.77
2023-12-10T08:11:56.370Z,13.17
2023-12-10T08:14:26.406Z,14.33
2023-12-10T08:16:53.347Z,18.73
2023-12-10T08:19:20.252Z,21.13
2023-12-10T08:21:47.425Z,15.80
2023-12-10T08:24:14.096Z,14.17
2023-12-10T08:26:41.224Z,13.40
2023-12-10T08:29:08.216Z,13.77
2023-12-10T08:31:36.227Z,14.63
2023-12-10T08:34:03.329Z,14.53
2023-12-10T08:36:30.454Z,17.13
2023-12-10T08:38:57.213Z,24.57
2023-12-10T08:41:23.986Z,26.00
2023-12-10T08:43:50.608Z,24.27
2023-12-10T08:46:17.732Z,24.87
2023-12-10T08:48:45.986Z,30.23
2023-12-10T08:51:13.156Z,25.67
2023-12-10T08:53:40.429Z,24.67
2023-12-10T08:56:07.840Z,17.47
2023-12-10T08:58:34.512Z,19.23
2023-12-10T09:01:02.106Z,17.37
2023-12-10T09:03:28.677Z,16.40
2023-12-10T09:05:56.265Z,17.03
2023-12-10T09:08:23.369Z,18.97
2023-12-10T09:10:50.604Z,20.83
2023-12-10T09:13:17.039Z,22.43
2023-12-10T09:15:44.407Z,62.67
2023-12-10T09:18:11.285Z,30.60
2023-12-10T09:20:39.145Z,22.53
2023-12-10T09:23:05.883Z,21.27
2023-12-10T09:25:33.320Z,20.23
2023-12-10T09:28:00.793Z,22.67
2023-12-10T09:30:27.883Z,18.80
2023-12-10T09:32:54.789Z,17.53
2023-12-10T09:35:23.843Z,18.70
2023-12-10T09:37:50.350Z,15.00
2023-12-10T09:40:20.629Z,14.37
2023-12-10T09:42:48.036Z,11.13
2023-12-10T09:45:15.078Z,17.90
2023-12-10T09:47:45.301Z,13.33
2023-12-10T09:50:14.456Z,10.93
2023-12-10T09:52:42.232Z,15.17
2023-12-10T09:55:10.248Z,13.03
2023-12-10T09:57:36.753Z,13.50
2023-12-10T10:00:05.737Z,10.27
2023-12-10T10:02:33.803Z,11.90
2023-12-10T10:05:06.288Z,15.03
2023-12-10T10:07:32.921Z,16.70
2023-12-10T10:10:00.012Z,14.10
2023-12-10T10:12:30.932Z,19.67
2023-12-10T10:14:59.926Z,19.80
2023-12-10T10:17:31.966Z,16.80
2023-12-10T10:20:00.181Z,17.30
2023-12-10T10:22:27.936Z,28.60
2023-12-10T10:24:55.455Z,36.00
2023-12-10T10:27:22.241Z,21.13
2023-12-10T10:29:53.571Z,16.53
2023-12-10T10:32:24.252Z,18.70
2023-12-10T10:34:51.702Z,20.57
2023-12-10T10:37:19.560Z,15.80
2023-12-10T10:39:51.566Z,18.77
2023-12-10T10:42:18.838Z,22.87
2023-12-10T10:44:46.930Z,17.63
2023-12-10T10:47:13.923Z,18.87
2023-12-10T10:49:45.057Z,23.97
2023-12-10T10:52:33.986Z,15.60
2023-12-10T10:55:02.643Z,15.30
2023-12-10T10:57:29.991Z,14.30
2023-12-10T10:59:57.574Z,15.00
2023-12-10T11:02:24.439Z,12.17
2023-12-10T11:04:52.371Z,11.80
2023-12-10T11:07:21.607Z,12.70
2023-12-10T11:10:00.316Z,15.33
2023-12-10T11:12:51.856Z,16.83
2023-12-10T11:15:18.722Z,13.33
2023-12-10T11:17:51.738Z,11.90
2023-12-10T11:20:42.495Z,12.43
2023-12-10T11:23:11.446Z,16.57
2023-12-10T11:25:38.925Z,17.00
2023-12-10T11:28:15.168Z,19.13
2023-12-10T11:30:43.155Z,14.47
2023-12-10T11:33:12.487Z,16.40
2023-12-10T11:35:40.972Z,13.77
2023-12-10T11:38:09.516Z,12.93
2023-12-10T11:40:36.858Z,16.17
2023-12-10T11:43:06.972Z,19.70
2023-12-10T11:45:35.190Z,19.90
2023-12-10T11:48:03.847Z,16.00
2023-12-10T11:50:36.974Z,14.40
2023-12-10T11:53:04.555Z,14.53
2023-12-10T11:55:32.217Z,13.07
2023-12-10T11:58:00.443Z,13.77
2023-12-10T12:00:27.898Z,13.47
2023-12-10T12:02:54.535Z,12.67
2023-12-10T12:05:21.790Z,12.47
2023-12-10T12:07:49.996Z,12.40
2023-12-10T12:10:18.419Z,12.60
2023-12-10T12:12:47.211Z,13.20
2023-12-10T12:15:16.602Z,13.40
2023-12-10T12:17:44.428Z,14.40
2023-12-10T12:20:19.453Z,12.73
2023-12-10T12:22:49.009Z,12.30
2023-12-10T12:25:17.519Z,11.57
2023-12-10T12:27:44.952Z,19.30
2023-12-10T12:30:12.977Z,14.70
2023-12-10T12:32:39.869Z,14.00
2023-12-10T12:35:08.350Z,16.00
2023-12-10T12:37:36.296Z,11.67
2023-12-10T12:40:05.342Z,13.27
2023-12-10T12:42:33.274Z,12.93
2023-12-10T12:45:00.964Z,11.37
2023-12-10T12:47:28.091Z,12.13
2023-12-10T12:49:55.636Z,12.07
2023-12-10T12:52:22.939Z,14.17
2023-12-10T12:54:50.602Z,17.83
2023-12-10T12:57:18.384Z,15.60
2023-12-10T12:59:45.832Z,14.67
2023-12-10T13:02:13.043Z,15.33
2023-12-10T13:04:41.257Z,15.37
2023-12-10T13:07:08.447Z,17.83
2023-12-10T13:09:35.699Z,22.43
2023-12-10T13:12:03.671Z,21.73
2023-12-10T13:14:30.946Z,18.33
2023-12-10T13:16:57.775Z,19.47
2023-12-10T13:19:24.995Z,22.40
2023-12-10T13:21:52.401Z,20.37
2023-12-10T13:24:19.655Z,20.47
2023-12-10T13:26:46.250Z,18.83
2023-12-10T13:29:13.959Z,16.33
2023-12-10T13:31:42.501Z,17.90
2023-12-10T13:34:09.965Z,14.87
2023-12-10T13:36:37.087Z,15.43
2023-12-10T13:39:04.277Z,13.23
2023-12-10T13:41:30.897Z,12.50
2023-12-10T13:43:57.961Z,13.23
2023-12-10T13:46:26.270Z,12.50
2023-12-10T13:48:53.718Z,12.50
2023-12-10T13:51:20.678Z,15.37
2023-12-10T13:53:48.433Z,30.63
2023-12-10T13:56:15.311Z,17.53
2023-12-10T13:58:42.656Z,21.20
2023-12-10T14:01:09.525Z,13.67
2023-12-10T14:03:36.618Z,14.30
2023-12-10T14:06:05.426Z,17.40
2023-12-10T14:08:32.683Z,13.90
2023-12-10T14:10:59.500Z,13.70
2023-12-10T14:13:26.871Z,25.03
2023-12-10T14:15:55.352Z,16.07
2023-12-10T14:18:22.922Z,15.70
2023-12-10T14:20:49.861Z,15.30
2023-12-10T14:23:17.061Z,16.73
2023-12-10T14:25:45.183Z,15.87
2023-12-10T14:28:12.651Z,17.37
2023-12-10T14:30:41.157Z,17.13
2023-12-10T14:33:09.208Z,16.83
2023-12-10T14:35:36.137Z,16.17
2023-12-10T14:38:04.112Z,19.73
2023-12-10T14:40:30.709Z,17.87
2023-12-10T14:42:58.001Z,19.47
2023-12-10T14:45:24.981Z,19.80
2023-12-10T14:47:52.484Z,22.30
2023-12-10T14:50:19.392Z,22.43
2023-12-10T14:52:47.233Z,22.07
2023-12-10T14:55:18.283Z,23.40
2023-12-10T14:57:46.903Z,24.97
2023-12-10T15:00:15.280Z,21.27
2023-12-10T15:02:42.446Z,18.33
2023-12-10T15:05:09.474Z,22.03
2023-12-10T15:07:42.565Z,24.40
2023-12-10T15:10:11.065Z,21.60
2023-12-10T15:12:39.061Z,18.30
2023-12-10T15:15:06.726Z,18.23
2023-12-10T15:17:34.152Z,17.57
2023-12-10T15:20:01.164Z,18.20
2023-12-10T15:22:28.256Z,17.90
2023-12-10T15:24:55.115Z,16.43
2023-12-10T15:27:23.294Z,16.23
2023-12-10T15:29:50.157Z,14.63
2023-12-10T15:32:17.439Z,13.77
2023-12-10T15:34:44.586Z,13.40
2023-12-10T15:37:11.995Z,12.87
2023-12-10T15:39:39.220Z,13.33
2023-12-10T15:42:06.444Z,13.00
2023-12-10T15:44:33.215Z,13.07
2023-12-10T15:47:02.329Z,12.27
2023-12-10T15:49:32.219Z,11.43
2023-12-10T15:52:00.800Z,11.93
2023-12-10T15:54:31.817Z,10.83
2023-12-10T15:57:01.797Z,10.77
2023-12-10T15:59:28.662Z,10.93
2023-12-10T16:01:56.676Z,9.77
2023-12-10T16:04:27.093Z,10.83
2023-12-10T16:06:54.763Z,9.97
2023-12-10T16:09:21.356Z,11.70
2023-12-10T16:11:48.448Z,15.63
2023-12-10T16:14:15.104Z,16.00
2023-12-10T16:16:42.196Z,20.93
2023-12-10T16:19:08.841Z,21.80
2023-12-10T16:21:35.877Z,16.90
2023-12-10T16:24:03.346Z,12.40
2023-12-10T16:26:38.105Z,14.63
2023-12-10T16:29:05.048Z,12.67
2023-12-10T16:31:33.461Z,12.97
2023-12-10T16:34:02.031Z,11.70
2023-12-10T16:36:29.353Z,11.93
2023-12-10T16:38:56.239Z,11.57
2023-12-10T16:41:23.682Z,9.70
2023-12-10T16:43:50.764Z,12.70
2023-12-10T16:46:18.014Z,14.33
2023-12-10T16:48:44.977Z,10.10
2023-12-10T16:51:12.444Z,9.43
2023-12-10T16:53:39.098Z,9.83
2023-12-10T16:56:06.686Z,8.43
2023-12-10T16:58:33.592Z,9.90
2023-12-10T17:01:00.813Z,10.27
2023-12-10T17:03:27.877Z,9.97
2023-12-10T17:05:55.846Z,8.23
2023-12-10T17:08:23.558Z,6.87
2023-12-10T17:10:50.718Z,9.90
2023-12-10T17:13:17.609Z,7.97
2023-12-10T17:15:45.257Z,8.30
2023-12-10T17:18:11.930Z,8.83
2023-12-10T17:20:39.238Z,19.73
2023-12-10T17:23:06.435Z,10.80
2023-12-10T17:25:33.954Z,8.90
2023-12-10T17:28:01.028Z,7.90
2023-12-10T17:30:28.482Z,7.23
2023-12-10T17:32:55.329Z,7.73
2023-12-10T17:35:22.587Z,6.53
2023-12-10T17:37:49.600Z,7.27
2023-12-10T17:40:16.850Z,6.23
2023-12-10T17:42:43.781Z,6.67
2023-12-10T17:45:11.042Z,5.60
2023-12-10T17:47:37.793Z,6.43
2023-12-10T17:50:08.005Z,8.30
2023-12-10T17:52:35.232Z,6.90
2023-12-10T17:55:02.716Z,5.63
2023-12-10T17:57:30.003Z,6.53
2023-12-10T17:59:57.539Z,6.10
2023-12-10T18:02:24.322Z,6.30
2023-12-10T18:04:52.133Z,6.27
2023-12-10T18:07:20.088Z,6.27
2023-12-10T18:09:47.541Z,7.07
2023-12-10T18:12:14.386Z,6.93
2023-12-10T18:14:42.166Z,9.77
2023-12-10T18:17:09.388Z,9.17
2023-12-10T18:19:37.206Z,7.60
2023-12-10T18:22:04.728Z,8.40
2023-12-10T18:24:32.019Z,8.20
2023-12-10T18:26:58.637Z,7.00
2023-12-10T18:29:27.246Z,8.00
2023-12-10T18:31:53.965Z,7.73
2023-12-10T18:34:21.606Z,8.87
2023-12-10T18:36:48.661Z,7.83
2023-12-10T18:39:15.876Z,8.07
2023-12-10T18:41:42.751Z,7.30
2023-12-10T18:44:12.197Z,7.20
2023-12-10T18:46:38.812Z,7.27
2023-12-10T18:49:06.851Z,8.27
2023-12-10T18:51:33.657Z,7.83
2023-12-10T18:54:00.898Z,8.17
2023-12-10T18:56:27.568Z,9.37
2023-12-10T18:58:54.670Z,8.43
2023-12-10T19:01:24.335Z,8.00
2023-12-10T19:03:51.956Z,7.13
2023-12-10T19:06:18.754Z,8.23
2023-12-10T19:08:46.010Z,7.10
2023-12-10T19:11:14.044Z,6.43
2023-12-10T19:13:41.961Z,6.90
2023-12-10T19:16:08.619Z,8.27
2023-12-10T19:18:41.926Z,7.17
2023-12-10T19:21:08.658Z,8.03
2023-12-10T19:23:37.042Z,8.80
2023-12-10T19:26:04.010Z,6.47
2023-12-10T19:28:31.111Z,8.47
2023-12-10T19:30:57.994Z,9.33
2023-12-10T19:33:25.743Z,7.03
2023-12-10T19:35:52.398Z,9.97
2023-12-10T19:38:19.383Z,12.37
2023-12-10T19:40:46.296Z,12.50
2023-12-10T19:43:13.089Z,15.27
2023-12-10T19:45:39.722Z,10.37
2023-12-10T19:48:06.829Z,7.80
2023-12-10T19:50:33.398Z,7.23
2023-12-10T19:53:00.347Z,7.47
2023-12-10T19:55:27.099Z,6.93
2023-12-10T19:57:54.160Z,7.47
2023-12-10T20:00:21.648Z,7.30
2023-12-10T20:02:49.635Z,7.40
2023-12-10T20:05:16.913Z,8.17
2023-12-10T20:07:44.293Z,8.27
2023-12-10T20:10:11.484Z,8.70
2023-12-10T20:12:38.726Z,10.47
2023-12-10T20:15:06.266Z,7.73
2023-12-10T20:17:33.679Z,7.67
2023-12-10T20:20:01.730Z,7.00
2023-12-10T20:22:29.112Z,7.33
2023-12-10T20:25:02.398Z,6.07
2023-12-10T20:27:31.273Z,5.90
2023-12-10T20:29:59.156Z,6.50
2023-12-10T20:32:28.553Z,6.43
2023-12-10T20:34:55.687Z,5.97
2023-12-10T20:37:22.644Z,5.40
2023-12-10T20:39:49.248Z,6.23
2023-12-10T20:42:16.641Z,6.37
2023-12-10T20:44:43.294Z,6.10
2023-12-10T20:47:10.752Z,6.07
2023-12-10T20:49:37.553Z,6.50
2023-12-10T20:52:06.334Z,5.87
2023-12-10T20:54:33.194Z,7.53
2023-12-10T20:57:00.704Z,7.70
2023-12-10T20:59:27.410Z,7.00
2023-12-10T21:01:54.426Z,7.47
2023-12-10T21:04:21.507Z,7.53
2023-12-10T21:06:52.739Z,8.23
2023-12-10T21:09:19.973Z,5.87
2023-12-10T21:11:47.237Z,7.13
2023-12-10T21:14:13.938Z,6.43
2023-12-10T21:16:41.002Z,7.37
2023-12-10T21:19:07.808Z,6.13
2023-12-10T21:21:35.022Z,5.87
2023-12-10T21:24:01.681Z,7.60
2023-12-10T21:26:29.274Z,7.17
2023-12-10T21:28:56.121Z,5.90
2023-12-10T21:31:25.561Z,6.73
2023-12-10T21:33:53.091Z,6.47
2023-12-10T21:36:20.088Z,7.20
2023-12-10T21:38:46.709Z,7.47
2023-12-10T21:41:13.890Z,6.20
2023-12-10T21:43:40.800Z,9.07
2023-12-10T21:46:07.864Z,7.10
2023-12-10T21:48:35.025Z,7.27
2023-12-10T21:51:02.407Z,6.73
2023-12-10T21:53:28.947Z,7.07
2023-12-10T21:55:55.826Z,6.23
2023-12-10T21:58:22.617Z,8.80
2023-12-10T22:00:49.701Z,5.33
2023-12-10T22:03:16.583Z,6.03
2023-12-10T22:05:43.877Z,5.80
2023-12-10T22:08:10.504Z,7.27
2023-12-10T22:10:37.481Z,6.00
2023-12-10T22:13:04.289Z,6.47
2023-12-10T22:15:31.347Z,7.40
2023-12-10T22:17:58.047Z,6.13
2023-12-10T22:20:25.068Z,5.73
2023-12-10T22:22:51.849Z,6.20
2023-12-10T22:25:18.812Z,6.13
2023-12-10T22:27:46.658Z,5.50
2023-12-10T22:30:14.528Z,7.50
2023-12-10T22:32:41.460Z,6.83
2023-12-10T22:35:08.990Z,7.17
2023-12-10T22:37:36.055Z,7.47
2023-12-10T22:40:03.421Z,5.80
2023-12-10T22:42:30.287Z,5.70
2023-12-10T22:45:00.274Z,5.23
2023-12-10T22:47:27.017Z,5.10
2023-12-10T22:49:55.663Z,6.00
2023-12-10T22:52:22.471Z,5.77
2023-12-10T22:54:49.228Z,8.07
2023-12-10T22:57:16.244Z,6.17
2023-12-10T22:59:44.206Z,6.13
2023-12-10T23:02:11.900Z,5.77
2023-12-10T23:04:38.849Z,5.67
2023-12-10T23:07:05.412Z,6.63
2023-12-10T23:09:32.181Z,8.20
2023-12-10T23:11:58.598Z,6.40
2023-12-10T23:14:25.378Z,5.07
2023-12-10T23:16:51.797Z,6.37
2023-12-10T23:19:18.578Z,8.17
2023-12-10T23:21:45.116Z,5.50
2023-12-10T23:24:12.170Z,6.33
2023-12-10T23:26:38.590Z,7.13
2023-12-10T23:29:06.356Z,7.43
2023-12-10T23:31:32.842Z,5.97
2023-12-10T23:34:00.408Z,5.47
2023-12-10T23:36:26.873Z,5.17
2023-12-10T23:38:53.567Z,5.50
2023-12-10T23:41:20.966Z,6.23
2023-12-10T23:43:48.848Z,6.20
2023-12-10T23:46:15.414Z,5.40
2023-12-10T23:48:43.109Z,5.37
2023-12-10T23:51:27.919Z,5.20
2023-12-10T23:53:55.054Z,4.83
2023-12-10T23:56:21.482Z,4.57
2023-12-10T23:58:48.269Z,4.83
